createdAt,value
2023-07-27T00:02:28.407Z,98581.72
2023-07-27T00:05:00.570Z,98570.66
2023-07-27T00:10:13.485Z,98575.91
2023-07-27T00:12:46.508Z,98579.63
2023-07-27T00:15:25.354Z,98590.59
2023-07-27T00:17:57.984Z,98597.22
2023-07-27T00:20:40.965Z,98604.53
2023-07-27T00:23:11.876Z,98596.28
2023-07-27T00:25:46.716Z,98610.28
2023-07-27T00:28:17.247Z,98619.28
2023-07-27T00:30:54.927Z,98618.59
2023-07-27T00:33:32.722Z,98613.56
2023-07-27T00:36:04.701Z,98633.06
2023-07-27T00:38:35.487Z,98630.63
2023-07-27T00:41:11.920Z,98623.16
2023-07-27T00:43:41.664Z,98642.97
2023-07-27T00:46:18.458Z,98643.97
2023-07-27T00:48:49.284Z,98658.66
2023-07-27T00:51:22.299Z,98655.00
2023-07-27T00:53:52.839Z,98661.00
2023-07-27T00:56:35.623Z,98665.38
2023-07-27T00:59:08.396Z,98675.00
2023-07-27T01:01:46.029Z,98688.91
2023-07-27T01:04:18.965Z,98677.34
2023-07-27T01:06:52.739Z,98669.50
2023-07-27T01:09:28.485Z,98656.22
2023-07-27T01:12:05.645Z,98657.00
2023-07-27T01:14:51.086Z,98670.53
2023-07-27T01:17:32.052Z,98677.47
2023-07-27T01:20:27.141Z,98679.25
2023-07-27T01:23:26.805Z,98687.28
2023-07-27T01:26:23.731Z,98692.84
2023-07-27T01:29:07.209Z,98691.09
2023-07-27T01:31:45.784Z,98677.25
2023-07-27T01:34:23.796Z,98668.56
2023-07-27T01:37:09.675Z,98691.19
2023-07-27T01:39:44.432Z,98687.06
2023-07-27T01:42:18.668Z,98660.31
2023-07-27T01:44:56.593Z,98670.06
2023-07-27T01:47:33.370Z,98668.00
2023-07-27T01:50:12.390Z,98673.06
2023-07-27T01:52:48.250Z,98663.09
2023-07-27T01:55:19.482Z,98670.00
2023-07-27T01:57:50.739Z,98668.03
2023-07-27T02:00:28.699Z,98661.59
2023-07-27T02:03:03.406Z,98666.38
2023-07-27T02:05:32.899Z,98662.75
2023-07-27T02:08:08.798Z,98665.94
2023-07-27T02:10:44.110Z,98672.84
2023-07-27T02:13:23.548Z,98664.50
2023-07-27T02:15:59.984Z,98664.59
2023-07-27T02:18:33.853Z,98669.56
2023-07-27T02:21:12.478Z,98663.31
2023-07-27T02:23:44.800Z,98656.13
2023-07-27T02:26:15.242Z,98674.94
2023-07-27T02:28:47.645Z,98662.25
2023-07-27T02:31:19.452Z,98669.97
2023-07-27T02:33:52.233Z,98658.88
2023-07-27T02:36:23.644Z,98685.31
2023-07-27T02:39:03.369Z,98679.78
2023-07-27T02:41:38.130Z,98680.97
2023-07-27T02:44:14.601Z,98673.63
2023-07-27T02:46:49.460Z,98672.50
2023-07-27T02:49:21.256Z,98652.75
2023-07-27T02:51:59.802Z,98644.69
2023-07-27T02:54:30.309Z,98645.91
2023-07-27T02:57:00.428Z,98633.13
2023-07-27T02:59:37.320Z,98640.25
2023-07-27T03:04:59.535Z,98617.16
2023-07-27T03:07:31.043Z,98599.28
2023-07-27T03:10:01.415Z,98586.06
2023-07-27T03:12:34.511Z,98607.47
2023-07-27T03:15:07.579Z,98598.47
2023-07-27T03:17:43.144Z,98561.16
2023-07-27T03:20:16.081Z,98567.44
2023-07-27T03:22:46.222Z,98595.09
2023-07-27T03:25:18.421Z,98612.00
2023-07-27T03:27:49.676Z,98645.41
2023-07-27T03:30:19.059Z,98661.22
2023-07-27T03:32:51.410Z,98670.25
2023-07-27T03:35:32.084Z,98691.06
2023-07-27T03:38:06.378Z,98715.69
2023-07-27T03:40:38.057Z,98722.13
2023-07-27T03:43:14.751Z,98727.97
2023-07-27T03:45:58.390Z,98745.94
2023-07-27T03:48:29.458Z,98754.03
2023-07-27T03:51:02.986Z,98757.41
2023-07-27T03:53:33.316Z,98772.94
2023-07-27T03:56:06.924Z,98774.78
2023-07-27T03:58:41.778Z,98784.75
2023-07-27T04:01:12.954Z,98789.59
2023-07-27T04:04:00.116Z,98778.59
2023-07-27T04:06:33.234Z,98790.38
2023-07-27T04:09:12.586Z,98814.50
2023-07-27T04:11:42.706Z,98818.38
2023-07-27T04:14:19.751Z,98828.41
2023-07-27T04:16:51.352Z,98826.19
2023-07-27T04:19:26.123Z,98842.59
2023-07-27T04:22:04.186Z,98836.91
2023-07-27T04:24:47.654Z,98842.38
2023-07-27T04:27:17.039Z,98841.00
2023-07-27T04:29:48.696Z,98854.03
2023-07-27T04:32:19.966Z,98851.91
2023-07-27T04:34:55.297Z,98859.88
2023-07-27T04:37:27.180Z,98845.66
2023-07-27T04:39:56.896Z,98845.66
2023-07-27T04:42:26.261Z,98843.75
2023-07-27T04:45:03.366Z,98845.72
2023-07-27T04:47:38.024Z,98845.06
2023-07-27T04:50:15.184Z,98838.94
2023-07-27T04:52:51.530Z,98847.84
2023-07-27T04:55:23.990Z,98846.06
2023-07-27T04:57:53.907Z,98833.38
2023-07-27T05:00:24.827Z,98805.41
2023-07-27T05:05:31.936Z,98812.66
2023-07-27T05:08:06.759Z,98798.06
2023-07-27T05:10:42.846Z,98809.38
2023-07-27T05:13:13.908Z,98830.47
2023-07-27T05:15:50.054Z,98813.00
2023-07-27T05:18:22.499Z,98834.72
2023-07-27T05:20:54.476Z,98845.66
2023-07-27T05:23:28.213Z,98837.22
2023-07-27T05:26:04.428Z,98844.28
2023-07-27T05:28:34.798Z,98853.25
2023-07-27T05:31:04.795Z,98859.56
2023-07-27T05:33:41.038Z,98861.28
2023-07-27T05:36:12.799Z,98862.69
2023-07-27T05:38:49.335Z,98849.53
2023-07-27T05:41:19.447Z,98842.34
2023-07-27T05:43:51.810Z,98816.25
2023-07-27T05:46:22.791Z,98826.19
2023-07-27T05:48:52.931Z,98817.34
2023-07-27T05:51:22.855Z,98824.91
2023-07-27T05:54:01.263Z,98826.84
2023-07-27T05:56:31.755Z,98837.00
2023-07-27T05:59:04.680Z,98837.50
2023-07-27T06:01:36.467Z,98841.22
2023-07-27T06:04:09.096Z,98840.00
2023-07-27T06:06:39.486Z,98847.94
2023-07-27T06:09:12.805Z,98853.94
2023-07-27T06:11:45.196Z,98845.31
2023-07-27T06:14:16.083Z,98837.34
2023-07-27T06:16:47.946Z,98837.94
2023-07-27T06:19:17.608Z,98841.19
2023-07-27T06:21:47.381Z,98838.31
2023-07-27T06:24:32.964Z,98831.47
2023-07-27T06:27:02.718Z,98816.56
2023-07-27T06:29:33.751Z,98815.84
2023-07-27T06:32:11.416Z,98827.13
2023-07-27T06:34:42.285Z,98819.69
2023-07-27T06:37:13.873Z,98827.94
2023-07-27T06:39:47.212Z,98834.78
2023-07-27T06:42:18.451Z,98842.53
2023-07-27T06:45:03.259Z,98846.00
2023-07-27T06:47:35.716Z,98836.25
2023-07-27T06:50:06.933Z,98831.41
2023-07-27T06:52:38.249Z,98828.09
2023-07-27T06:57:49.818Z,98833.97
2023-07-27T07:00:20.460Z,98835.50
2023-07-27T07:02:51.801Z,98823.44
2023-07-27T07:05:22.429Z,98830.88
2023-07-27T07:07:53.024Z,98828.63
2023-07-27T07:10:28.743Z,98828.13
2023-07-27T07:12:59.749Z,98829.31
2023-07-27T07:15:35.812Z,98812.31
2023-07-27T07:18:07.547Z,98824.31
2023-07-27T07:20:37.624Z,98825.25
2023-07-27T07:23:07.061Z,98822.56
2023-07-27T07:25:44.699Z,98828.13
2023-07-27T07:28:16.237Z,98824.78
2023-07-27T07:30:47.523Z,98825.03
2023-07-27T07:33:18.561Z,98829.59
2023-07-27T07:36:02.061Z,98818.22
2023-07-27T07:38:34.329Z,98802.06
2023-07-27T07:41:09.926Z,98820.03
2023-07-27T07:43:40.332Z,98823.34
2023-07-27T07:46:13.278Z,98815.78
2023-07-27T07:48:44.146Z,98819.97
2023-07-27T07:51:18.635Z,98815.91
2023-07-27T07:53:54.978Z,98826.97
2023-07-27T07:56:32.022Z,98821.94
2023-07-27T07:59:02.095Z,98826.50
2023-07-27T08:01:32.287Z,98828.28
2023-07-27T08:04:05.868Z,98830.03
2023-07-27T08:06:45.204Z,98842.28
2023-07-27T08:09:16.412Z,98825.69
2023-07-27T08:11:48.953Z,98833.16
2023-07-27T08:14:19.078Z,98823.50
2023-07-27T08:16:56.179Z,98816.41
2023-07-27T08:19:27.000Z,98823.50
2023-07-27T08:21:59.078Z,98831.63
2023-07-27T08:24:31.272Z,98834.03
2023-07-27T08:27:05.296Z,98831.94
2023-07-27T08:29:36.881Z,98834.00
2023-07-27T08:32:11.516Z,98843.78
2023-07-27T08:34:47.501Z,98843.47
2023-07-27T08:37:30.763Z,98842.63
2023-07-27T08:40:02.277Z,98843.94
2023-07-27T08:42:37.435Z,98853.91
2023-07-27T08:45:14.060Z,98852.88
2023-07-27T08:50:38.263Z,98847.25
2023-07-27T08:53:09.854Z,98843.94
2023-07-27T08:55:41.282Z,98849.06
2023-07-27T08:58:21.884Z,98848.53
2023-07-27T09:00:53.985Z,98852.09
2023-07-27T09:03:25.732Z,98845.91
2023-07-27T09:06:05.291Z,98830.56
2023-07-27T09:08:35.656Z,98847.28
2023-07-27T09:11:09.435Z,98855.84
2023-07-27T09:13:43.416Z,98866.44
2023-07-27T09:16:17.799Z,98870.03
2023-07-27T09:21:26.217Z,98863.66
2023-07-27T09:23:55.621Z,98863.22
2023-07-27T09:26:35.259Z,98868.00
2023-07-27T09:29:10.461Z,98864.25
2023-07-27T09:31:49.163Z,98862.09
2023-07-27T09:34:21.048Z,98877.84
2023-07-27T09:36:52.393Z,98873.78
2023-07-27T09:39:23.063Z,98869.06
2023-07-27T09:44:31.792Z,98864.50
2023-07-27T09:47:04.486Z,98860.84
2023-07-27T09:49:35.530Z,98846.00
2023-07-27T09:52:06.707Z,98868.47
2023-07-27T09:54:39.469Z,98848.63
2023-07-27T09:57:12.567Z,98862.81
2023-07-27T09:59:49.332Z,98857.28
2023-07-27T10:02:32.376Z,98858.44
2023-07-27T10:05:05.210Z,98854.25
2023-07-27T10:10:42.939Z,98846.88
2023-07-27T10:13:16.793Z,98842.34
2023-07-27T10:15:53.991Z,98827.03
2023-07-27T10:18:29.068Z,98812.22
2023-07-27T10:21:20.258Z,98827.75
2023-07-27T10:24:00.282Z,98821.06
2023-07-27T10:26:57.933Z,98805.44
2023-07-27T10:29:37.105Z,98803.28
2023-07-27T10:32:19.677Z,98804.97
2023-07-27T10:34:54.822Z,98789.53
2023-07-27T10:37:25.354Z,98796.38
2023-07-27T10:39:58.719Z,98796.50
2023-07-27T10:42:30.945Z,98782.13
2023-07-27T10:45:15.070Z,98787.31
2023-07-27T10:47:52.248Z,98805.97
2023-07-27T10:50:21.739Z,98784.41
2023-07-27T10:52:57.095Z,98774.75
2023-07-27T10:55:28.209Z,98804.94
2023-07-27T10:57:59.984Z,98802.34
2023-07-27T11:00:39.020Z,98799.34
2023-07-27T11:03:13.121Z,98801.91
2023-07-27T11:05:44.108Z,98804.94
2023-07-27T11:08:13.679Z,98812.16
2023-07-27T11:10:44.305Z,98811.25
2023-07-27T11:13:21.591Z,98807.63
2023-07-27T11:15:53.081Z,98812.53
2023-07-27T11:18:27.506Z,98804.84
2023-07-27T11:20:58.255Z,98801.28
2023-07-27T11:23:35.923Z,98803.94
2023-07-27T11:26:09.297Z,98802.66
2023-07-27T11:28:47.458Z,98803.75
2023-07-27T11:31:19.972Z,98815.81
2023-07-27T11:33:55.828Z,98815.28
2023-07-27T11:36:32.675Z,98821.81
2023-07-27T11:39:09.189Z,98812.97
2023-07-27T11:41:47.980Z,98818.38
2023-07-27T11:44:19.329Z,98814.25
2023-07-27T11:46:51.471Z,98810.97
2023-07-27T11:49:25.731Z,98791.34
2023-07-27T11:51:56.624Z,98801.94
2023-07-27T11:54:27.431Z,98799.22
2023-07-27T11:57:00.025Z,98793.91
2023-07-27T11:59:32.744Z,98789.31
2023-07-27T12:02:03.061Z,98790.13
2023-07-27T12:04:35.054Z,98779.75
2023-07-27T12:07:08.027Z,98760.84
2023-07-27T12:10:13.959Z,98758.97
2023-07-27T12:12:50.519Z,98750.81
2023-07-27T12:15:31.174Z,98727.72
2023-07-27T12:18:04.022Z,98719.97
2023-07-27T12:26:28.107Z,98714.75
2023-07-27T12:28:42.955Z,98724.28
2023-07-27T12:33:56.601Z,98703.09
2023-07-27T12:36:28.425Z,98725.19
2023-07-27T12:38:58.432Z,98717.31
2023-07-27T12:41:28.744Z,98733.38
2023-07-27T12:50:10.971Z,98712.47
2023-07-27T12:52:43.456Z,98705.09
2023-07-27T12:55:21.899Z,98709.94
2023-07-27T12:57:52.003Z,98706.88
2023-07-27T13:00:29.178Z,98695.22
2023-07-27T13:03:01.454Z,98702.81
2023-07-27T13:05:43.427Z,98706.94
2023-07-27T13:08:17.093Z,98700.47
2023-07-27T13:10:53.688Z,98689.19
2023-07-27T13:13:29.933Z,98694.66
2023-07-27T13:16:01.367Z,98692.91
2023-07-27T13:18:34.248Z,98689.38
2023-07-27T13:21:09.762Z,98687.91
2023-07-27T13:23:49.357Z,98680.63
2023-07-27T13:29:00.369Z,98677.00
2023-07-27T13:31:40.252Z,98665.84
2023-07-27T13:34:15.179Z,98668.06
2023-07-27T13:36:52.253Z,98670.09
2023-07-27T13:39:22.782Z,98670.69
2023-07-27T13:41:52.671Z,98667.38
2023-07-27T13:44:22.513Z,98656.97
2023-07-27T13:46:52.228Z,98659.09
2023-07-27T13:49:22.382Z,98662.38
2023-07-27T13:51:53.799Z,98669.50
2023-07-27T13:54:29.191Z,98680.44
2023-07-27T13:57:06.626Z,98653.50
2023-07-27T14:02:27.630Z,98668.06
2023-07-27T14:04:59.438Z,98681.31
2023-07-27T14:07:35.515Z,98651.38
2023-07-27T14:10:13.552Z,98673.91
2023-07-27T14:12:43.350Z,98674.41
2023-07-27T14:15:14.157Z,98672.84
2023-07-27T14:17:47.120Z,98682.84
2023-07-27T14:23:05.485Z,98660.78
2023-07-27T14:25:38.131Z,98663.16
2023-07-27T14:28:13.534Z,98642.41
2023-07-27T14:31:02.239Z,98658.47
2023-07-27T14:33:49.782Z,98654.81
2023-07-27T14:36:30.048Z,98649.44
2023-07-27T14:41:40.252Z,98652.72
2023-07-27T14:44:11.374Z,98644.72
2023-07-27T14:46:47.139Z,98655.16
2023-07-27T14:49:24.398Z,98641.00
2023-07-27T14:51:58.640Z,98637.31
2023-07-27T14:54:32.623Z,98632.84
2023-07-27T14:57:13.683Z,98629.06
2023-07-27T14:59:57.683Z,98630.75
2023-07-27T15:05:33.568Z,98633.31
2023-07-27T15:08:05.545Z,98624.94
2023-07-27T15:10:39.983Z,98611.72
2023-07-27T15:13:19.464Z,98618.19
2023-07-27T15:15:50.875Z,98602.28
2023-07-27T15:18:23.842Z,98605.00
2023-07-27T15:20:57.697Z,98592.66
2023-07-27T15:26:09.986Z,98589.50
2023-07-27T15:28:40.810Z,98584.63
2023-07-27T15:31:13.549Z,98569.53
2023-07-27T15:36:22.447Z,98577.16
2023-07-27T15:38:56.704Z,98583.22
2023-07-27T15:44:05.033Z,98574.53
2023-07-27T15:46:35.381Z,98573.13
2023-07-27T15:49:11.752Z,98555.75
2023-07-27T15:51:43.482Z,98561.41
2023-07-27T15:54:19.898Z,98566.84
2023-07-27T15:56:55.460Z,98560.19
2023-07-27T15:59:31.402Z,98551.72
2023-07-27T16:02:01.786Z,98540.69
2023-07-27T16:04:32.684Z,98539.59
2023-07-27T16:07:06.982Z,98552.13
2023-07-27T16:09:40.688Z,98531.97
2023-07-27T16:12:15.374Z,98538.63
2023-07-27T16:14:52.260Z,98538.06
2023-07-27T16:17:23.554Z,98533.91
2023-07-27T16:20:01.938Z,98530.28
2023-07-27T16:22:33.592Z,98497.44
2023-07-27T16:25:10.156Z,98508.16
2023-07-27T16:27:42.743Z,98522.06
2023-07-27T16:30:22.140Z,98527.75
2023-07-27T16:32:52.196Z,98515.13
2023-07-27T16:35:22.357Z,98490.63
2023-07-27T16:37:53.116Z,98505.25
2023-07-27T16:40:30.100Z,98502.00
2023-07-27T16:43:07.354Z,98499.13
2023-07-27T16:45:46.180Z,98488.25
2023-07-27T16:48:19.290Z,98490.75
2023-07-27T16:50:49.555Z,98487.66
2023-07-27T16:53:20.436Z,98508.94
2023-07-27T16:55:50.290Z,98499.88
2023-07-27T16:58:29.156Z,98495.03
2023-07-27T17:01:01.405Z,98484.88
2023-07-27T17:03:31.641Z,98485.81
2023-07-27T17:06:06.467Z,98476.47
2023-07-27T17:08:41.153Z,98471.56
2023-07-27T17:11:26.037Z,98479.03
2023-07-27T17:14:03.439Z,98478.63
2023-07-27T17:16:33.882Z,98470.97
2023-07-27T17:19:03.836Z,98463.38
2023-07-27T17:21:34.386Z,98462.50
2023-07-27T17:24:09.182Z,98459.47
2023-07-27T17:26:40.751Z,98451.75
2023-07-27T17:29:13.608Z,98442.81
2023-07-27T17:32:05.289Z,98440.03
2023-07-27T17:34:35.873Z,98414.88
2023-07-27T17:37:10.640Z,98402.31
2023-07-27T17:39:40.948Z,98409.13
2023-07-27T17:42:15.842Z,98406.72
2023-07-27T17:44:52.625Z,98407.81
2023-07-27T17:47:27.151Z,98401.50
2023-07-27T17:49:59.431Z,98395.78
2023-07-27T17:52:31.564Z,98399.63
2023-07-27T17:55:03.142Z,98401.44
2023-07-27T17:57:34.657Z,98407.63
2023-07-27T18:00:11.371Z,98416.59
2023-07-27T18:02:46.342Z,98406.06
2023-07-27T18:05:19.000Z,98387.16
2023-07-27T18:07:59.000Z,98388.00
2023-07-27T18:10:30.001Z,98391.81
2023-07-27T18:12:59.750Z,98390.47
2023-07-27T18:15:34.528Z,98381.97
2023-07-27T18:18:18.404Z,98381.56
2023-07-27T18:20:49.487Z,98377.16
2023-07-27T18:23:22.525Z,98358.16
2023-07-27T18:26:02.086Z,98374.50
2023-07-27T18:28:32.022Z,98336.00
2023-07-27T18:31:07.129Z,98303.63
2023-07-27T18:33:37.403Z,98341.06
2023-07-27T18:36:16.036Z,98302.91
2023-07-27T18:38:57.775Z,98334.78
2023-07-27T18:41:29.073Z,98335.22
2023-07-27T18:44:00.434Z,98313.22
2023-07-27T18:46:33.171Z,98328.28
2023-07-27T18:49:09.248Z,98350.53
2023-07-27T18:51:39.949Z,98336.34
2023-07-27T18:54:14.871Z,98339.72
2023-07-27T18:56:45.742Z,98316.25
2023-07-27T18:59:16.410Z,98319.44
2023-07-27T19:01:49.021Z,98305.88
2023-07-27T19:04:23.660Z,98322.97
2023-07-27T19:06:55.966Z,98316.88
2023-07-27T19:09:31.069Z,98326.69
2023-07-27T19:12:02.098Z,98317.13
2023-07-27T19:14:31.670Z,98310.31
2023-07-27T19:17:14.660Z,98326.69
2023-07-27T19:19:44.545Z,98296.72
2023-07-27T19:22:14.089Z,98307.03
2023-07-27T19:24:43.770Z,98299.84
2023-07-27T19:27:13.105Z,98298.19
2023-07-27T19:29:43.635Z,98290.50
2023-07-27T19:32:22.489Z,98297.63
2023-07-27T19:34:59.100Z,98297.38
2023-07-27T19:37:32.648Z,98287.09
2023-07-27T19:40:03.332Z,98291.69
2023-07-27T19:42:41.377Z,98272.13
2023-07-27T19:45:13.709Z,98258.53
2023-07-27T19:47:53.513Z,98256.47
2023-07-27T19:50:30.396Z,98261.75
2023-07-27T19:53:02.777Z,98264.66
2023-07-27T19:55:32.374Z,98270.50
2023-07-27T19:58:03.330Z,98274.38
2023-07-27T20:00:38.375Z,98266.31
2023-07-27T20:03:11.839Z,98249.34
2023-07-27T20:05:42.365Z,98261.03
2023-07-27T20:08:14.897Z,98261.31
2023-07-27T20:10:47.102Z,98254.22
2023-07-27T20:13:23.793Z,98261.44
2023-07-27T20:15:55.339Z,98269.50
2023-07-27T20:18:28.418Z,98271.44
2023-07-27T20:21:03.561Z,98264.34
2023-07-27T20:23:35.042Z,98271.59
2023-07-27T20:26:04.157Z,98279.66
2023-07-27T20:28:39.176Z,98267.56
2023-07-27T20:31:10.441Z,98269.66
2023-07-27T20:33:47.407Z,98275.75
2023-07-27T20:36:18.980Z,98277.84
2023-07-27T20:38:49.043Z,98281.00
2023-07-27T20:41:22.158Z,98267.25
2023-07-27T20:43:53.014Z,98260.44
2023-07-27T20:46:23.138Z,98266.44
2023-07-27T20:48:56.817Z,98280.63
2023-07-27T20:51:30.704Z,98309.22
2023-07-27T20:54:01.228Z,98315.34
2023-07-27T20:56:30.776Z,98343.25
2023-07-27T20:59:01.896Z,98329.19
2023-07-27T21:01:32.202Z,98328.78
2023-07-27T21:04:10.447Z,98328.25
2023-07-27T21:06:41.006Z,98335.00
2023-07-27T21:09:11.025Z,98336.09
2023-07-27T21:11:40.879Z,98337.19
2023-07-27T21:14:10.576Z,98351.47
2023-07-27T21:16:47.659Z,98351.47
2023-07-27T21:19:25.053Z,98346.06
2023-07-27T21:21:57.588Z,98343.56
2023-07-27T21:24:26.911Z,98336.03
2023-07-27T21:26:57.462Z,98343.19
2023-07-27T21:29:31.414Z,98321.19
2023-07-27T21:32:07.860Z,98337.66
2023-07-27T21:34:46.841Z,98333.19
2023-07-27T21:37:16.177Z,98326.09
2023-07-27T21:39:47.983Z,98326.81
2023-07-27T21:42:19.809Z,98326.56
2023-07-27T21:44:49.448Z,98305.19
2023-07-27T21:47:18.780Z,98296.72
2023-07-27T21:49:55.905Z,98303.00
2023-07-27T21:52:25.803Z,98296.03
2023-07-27T21:54:55.295Z,98294.09
2023-07-27T21:57:25.831Z,98289.53
2023-07-27T21:59:55.606Z,98281.34
2023-07-27T22:02:32.634Z,98264.81
2023-07-27T22:05:11.853Z,98259.25
2023-07-27T22:07:41.845Z,98258.56
2023-07-27T22:10:11.364Z,98253.44
2023-07-27T22:12:48.574Z,98243.44
2023-07-27T22:15:19.486Z,98242.47
2023-07-27T22:17:51.996Z,98236.63
2023-07-27T22:20:23.479Z,98227.75
2023-07-27T22:22:53.310Z,98229.94
2023-07-27T22:25:24.037Z,98235.22
2023-07-27T22:27:59.958Z,98230.22
2023-07-27T22:30:32.654Z,98233.53
2023-07-27T22:33:08.326Z,98227.66
2023-07-27T22:35:42.960Z,98231.53
2023-07-27T22:38:13.516Z,98228.47
2023-07-27T22:40:57.024Z,98219.88
2023-07-27T22:48:39.016Z,98231.16
2023-07-27T22:51:12.665Z,98233.94
2023-07-27T22:53:48.896Z,98227.81
2023-07-27T22:56:23.561Z,98221.72
2023-07-27T22:58:53.316Z,98220.03
2023-07-27T23:01:24.177Z,98219.34
2023-07-27T23:03:59.570Z,98222.13
2023-07-27T23:06:35.503Z,98221.66
2023-07-27T23:09:06.091Z,98214.31
2023-07-27T23:11:39.613Z,98209.09
2023-07-27T23:14:10.717Z,98214.09
2023-07-27T23:16:41.378Z,98226.47
2023-07-27T23:19:21.086Z,98226.84
2023-07-27T23:21:55.136Z,98219.09
2023-07-27T23:24:30.603Z,98224.25
2023-07-27T23:27:08.623Z,98227.53
2023-07-27T23:29:43.261Z,98238.47
2023-07-27T23:32:14.274Z,98232.53
2023-07-27T23:34:44.832Z,98220.22
2023-07-27T23:37:21.072Z,98212.28
2023-07-27T23:39:56.454Z,98211.50
2023-07-27T23:42:34.979Z,98213.69
2023-07-27T23:45:05.855Z,98233.34
2023-07-27T23:47:41.679Z,98251.41
2023-07-27T23:50:14.168Z,98250.78
2023-07-27T23:52:47.704Z,98261.94
2023-07-27T23:55:19.922Z,98259.19
2023-07-27T23:57:52.669Z,98259.63
